Time;durP1;ratioP1;P1;durP2;ratioP2;P2;SDS_P1;SDS_P2;PMS_P1;PMS_P2;Temp;Humidity;BMP_temperature;BMP_pressure;BME280_temperature;BME280_humidity;BME280_pressure;Samples;Min_cycle;Max_cycle;Signal;HPM_P1;HPM_P2
2022/05/28 00:01:55;;;;;;;60.70;4.00;;;;;;;;;;5073625;28;20443;-79
2022/05/28 00:04:22;;;;;;;61.07;4.00;;;;;;;;;;5073481;28;20436;-79
2022/05/28 00:06:49;;;;;;;60.03;3.20;;;;;;;;;;5073685;28;20534;-79
2022/05/28 00:09:16;;;;;;;58.93;3.60;;;;;;;;;;5074265;28;20472;-79
2022/05/28 00:11:45;;;;;;;60.67;3.67;;;;;;;;;;5074993;28;20646;-79
2022/05/28 00:14:13;;;;;;;62.03;3.57;;;;;;;;;;5075153;28;20436;-79
2022/05/28 00:16:41;;;;;;;60.90;3.80;;;;;;;;;;5074713;28;20432;-79
2022/05/28 00:19:09;;;;;;;63.03;3.90;;;;;;;;;;5075132;28;20485;-79
2022/05/28 00:21:36;;;;;;;59.27;3.57;;;;;;;;;;5074973;28;20498;-79
2022/05/28 00:24:04;;;;;;;65.77;4.30;;;;;;;;;;5075112;28;20506;-78
2022/05/28 00:26:31;;;;;;;60.37;4.03;;;;;;;;;;5074458;28;20440;-79
2022/05/28 00:29:00;;;;;;;59.60;3.30;;;;;;;;;;5073918;28;20450;-79
2022/05/28 00:31:27;;;;;;;62.50;3.90;;;;;;;;;;5075198;28;20444;-79
2022/05/28 00:33:54;;;;;;;60.57;4.87;;;;;;;;;;5073853;28;20431;-79
2022/05/28 00:36:22;;;;;;;60.90;3.70;;;;;;;;;;5073625;28;20495;-79
2022/05/28 00:38:49;;;;;;;59.77;4.27;;;;;;;;;;5073457;28;20446;-78
2022/05/28 00:41:17;;;;;;;59.90;4.00;;;;;;;;;;5075185;28;20443;-79
2022/05/28 00:43:45;;;;;;;60.07;3.70;;;;;;;;;;5074006;28;20452;-79
2022/05/28 00:46:15;;;;;;;66.00;4.67;;;;;;;;;;5074539;28;20457;-79
2022/05/28 00:48:45;;;;;;;59.30;4.00;;;;;;;;;;5074350;28;20470;-80
2022/05/28 00:51:15;;;;;;;59.27;3.57;;;;;;;;;;5075164;28;20994;-80
2022/05/28 00:53:43;;;;;;;59.60;3.57;;;;;;;;;;5075055;28;20523;-79
2022/05/28 00:56:11;;;;;;;59.17;3.13;;;;;;;;;;5075452;28;20506;-80
2022/05/28 00:58:38;;;;;;;59.67;3.60;;;;;;;;;;5075166;28;20466;-79
2022/05/28 01:01:07;;;;;;;59.40;3.20;;;;;;;;;;5075249;28;20689;-80
2022/05/28 01:03:37;;;;;;;59.57;3.83;;;;;;;;;;5073287;28;20450;-78
2022/05/28 01:06:06;;;;;;;59.57;3.50;;;;;;;;;;5073314;28;20983;-79
2022/05/28 01:08:37;;;;;;;60.00;3.90;;;;;;;;;;5074737;28;20482;-78
2022/05/28 01:11:07;;;;;;;63.27;4.30;;;;;;;;;;5075261;28;20451;-78
2022/05/28 01:13:36;;;;;;;59.50;3.43;;;;;;;;;;5074904;28;20443;-78
2022/05/28 01:16:06;;;;;;;62.70;3.20;;;;;;;;;;5075410;28;21010;-78
2022/05/28 01:18:35;;;;;;;59.50;3.40;;;;;;;;;;5074200;28;20439;-79
2022/05/28 01:21:07;;;;;;;59.17;3.40;;;;;;;;;;5075310;28;20801;-79
2022/05/28 01:23:41;;;;;;;59.77;3.40;;;;;;;;;;5074363;28;20468;-78
2022/05/28 01:26:14;;;;;;;59.27;3.13;;;;;;;;;;5074827;28;20451;-78
2022/05/28 01:28:45;;;;;;;63.77;3.77;;;;;;;;;;5074963;28;20601;-79
2022/05/28 01:31:13;;;;;;;59.93;3.70;;;;;;;;;;5075595;28;20431;-78
2022/05/28 01:33:42;;;;;;;59.40;3.60;;;;;;;;;;5075964;28;20455;-79
2022/05/28 01:36:11;;;;;;;59.20;3.27;;;;;;;;;;5074753;28;21034;-79
2022/05/28 01:38:39;;;;;;;59.30;3.37;;;;;;;;;;5076238;28;20447;-79
2022/05/28 01:41:07;;;;;;;59.17;3.37;;;;;;;;;;5078703;28;20440;-79
2022/05/28 01:43:37;;;;;;;60.60;3.77;;;;;;;;;;5078082;28;20440;-78
2022/05/28 01:46:06;;;;;;;59.47;3.40;;;;;;;;;;5078111;28;20451;-79
2022/05/28 01:48:34;;;;;;;59.70;3.17;;;;;;;;;;5079058;28;20545;-78
2022/05/28 01:51:02;;;;;;;60.13;3.53;;;;;;;;;;5078587;28;20451;-79
2022/05/28 01:56:16;;;;;;;59.70;3.57;;;;;;;;;;5070537;28;20509;-79
2022/05/28 01:58:44;;;;;;;61.20;3.27;;;;;;;;;;5079027;28;20445;-79
2022/05/28 02:01:12;;;;;;;59.50;3.80;;;;;;;;;;5079661;28;20451;-79
2022/05/28 02:03:41;;;;;;;58.90;3.00;;;;;;;;;;5079532;28;20431;-79
2022/05/28 02:06:09;;;;;;;60.27;3.20;;;;;;;;;;5079828;28;20454;-79
2022/05/28 02:08:37;;;;;;;58.70;2.80;;;;;;;;;;5079036;28;20482;-79
2022/05/28 02:11:09;;;;;;;58.87;2.83;;;;;;;;;;5078905;28;20500;-79
2022/05/28 02:13:40;;;;;;;59.50;3.17;;;;;;;;;;5078748;28;20428;-79
2022/05/28 02:16:11;;;;;;;60.90;3.23;;;;;;;;;;5079302;28;20467;-79
2022/05/28 02:18:47;;;;;;;60.90;3.20;;;;;;;;;;5078951;28;20471;-79
2022/05/28 02:21:18;;;;;;;59.40;3.20;;;;;;;;;;5078448;28;20431;-79
2022/05/28 02:23:47;;;;;;;60.10;3.13;;;;;;;;;;5078975;28;20431;-79
2022/05/28 02:26:17;;;;;;;58.87;2.80;;;;;;;;;;5078792;28;20457;-79
2022/05/28 02:28:46;;;;;;;59.87;3.50;;;;;;;;;;5078002;28;20482;-79
2022/05/28 02:31:14;;;;;;;64.97;4.13;;;;;;;;;;5079005;28;20432;-79
2022/05/28 02:33:43;;;;;;;65.17;3.87;;;;;;;;;;5078297;28;20431;-79
2022/05/28 02:36:11;;;;;;;59.17;3.03;;;;;;;;;;5078600;28;20546;-79
2022/05/28 02:38:38;;;;;;;59.47;3.10;;;;;;;;;;5078541;28;20882;-79
2022/05/28 02:41:05;;;;;;;60.70;3.70;;;;;;;;;;5078078;28;20995;-79
2022/05/28 02:43:33;;;;;;;61.20;5.03;;;;;;;;;;5078917;28;20471;-79
2022/05/28 02:46:00;;;;;;;59.30;3.20;;;;;;;;;;5078705;28;20438;-79
2022/05/28 02:48:28;;;;;;;60.10;3.60;;;;;;;;;;5078536;28;21014;-79
2022/05/28 02:51:02;;;;;;;59.97;3.20;;;;;;;;;;5078730;28;20459;-79
2022/05/28 02:53:29;;;;;;;60.90;3.63;;;;;;;;;;5081137;28;20459;-79
2022/05/28 02:55:56;;;;;;;59.13;3.00;;;;;;;;;;5080506;28;20474;-80
2022/05/28 02:58:24;;;;;;;59.80;3.33;;;;;;;;;;5079141;28;20447;-79
2022/05/28 03:00:51;;;;;;;58.97;3.07;;;;;;;;;;5078611;28;20466;-79
2022/05/28 03:03:20;;;;;;;61.57;3.60;;;;;;;;;;5079046;28;20463;-79
2022/05/28 03:05:47;;;;;;;59.30;3.30;;;;;;;;;;5078587;28;20530;-79
2022/05/28 03:08:16;;;;;;;59.50;3.30;;;;;;;;;;5078280;28;20507;-80
2022/05/28 03:10:43;;;;;;;60.70;3.93;;;;;;;;;;5078447;28;20456;-79
2022/05/28 03:13:11;;;;;;;60.17;3.40;;;;;;;;;;5081450;28;20436;-79
2022/05/28 03:15:39;;;;;;;61.77;3.60;;;;;;;;;;5084697;28;20806;-79
2022/05/28 03:18:06;;;;;;;63.77;3.70;;;;;;;;;;5083845;28;20443;-79
2022/05/28 03:20:34;;;;;;;64.97;4.27;;;;;;;;;;5081280;28;20460;-78
2022/05/28 03:23:01;;;;;;;59.47;3.60;;;;;;;;;;5078673;28;20498;-79
2022/05/28 03:25:30;;;;;;;60.40;2.93;;;;;;;;;;5078420;28;20431;-79
2022/05/28 03:27:57;;;;;;;61.10;3.47;;;;;;;;;;5076967;28;20479;-78
2022/05/28 03:30:24;;;;;;;59.17;3.40;;;;;;;;;;5076193;28;20463;-79
2022/05/28 03:32:52;;;;;;;59.60;3.43;;;;;;;;;;5078278;28;20459;-79
2022/05/28 03:35:19;;;;;;;58.77;2.87;;;;;;;;;;5076926;28;20801;-78
2022/05/28 03:37:46;;;;;;;65.67;3.10;;;;;;;;;;5076903;28;20467;-79
2022/05/28 03:40:14;;;;;;;61.67;3.37;;;;;;;;;;5077558;28;20451;-79
2022/05/28 03:42:42;;;;;;;59.60;3.53;;;;;;;;;;5078293;28;20440;-79
2022/05/28 03:45:10;;;;;;;60.50;3.50;;;;;;;;;;5078708;28;20482;-79
2022/05/28 03:47:37;;;;;;;59.10;3.07;;;;;;;;;;5078153;28;20434;-79
2022/05/28 03:50:05;;;;;;;59.37;3.30;;;;;;;;;;5077896;28;20510;-79
2022/05/28 03:52:32;;;;;;;58.60;2.83;;;;;;;;;;5078226;28;20432;-79
2022/05/28 03:55:00;;;;;;;59.43;3.50;;;;;;;;;;5078104;28;20436;-79
2022/05/28 03:57:28;;;;;;;59.10;2.90;;;;;;;;;;5076500;28;20449;-79
2022/05/28 03:59:57;;;;;;;59.30;3.30;;;;;;;;;;5076995;28;20479;-79
2022/05/28 04:02:24;;;;;;;60.30;3.20;;;;;;;;;;5078115;28;20436;-79
2022/05/28 04:04:51;;;;;;;59.40;3.00;;;;;;;;;;5077940;28;20447;-79
2022/05/28 04:07:19;;;;;;;60.10;3.57;;;;;;;;;;5078096;28;20935;-79
2022/05/28 04:09:46;;;;;;;61.80;4.40;;;;;;;;;;5078193;28;20475;-79
2022/05/28 04:12:14;;;;;;;62.33;3.10;;;;;;;;;;5077623;28;20443;-79
2022/05/28 04:14:41;;;;;;;58.93;3.30;;;;;;;;;;5077214;28;20440;-79
2022/05/28 04:17:10;;;;;;;61.13;4.47;;;;;;;;;;5077905;28;20506;-79
2022/05/28 04:19:37;;;;;;;59.20;3.00;;;;;;;;;;5078557;28;20465;-79
2022/05/28 04:22:05;;;;;;;59.07;3.00;;;;;;;;;;5077826;28;20951;-79
2022/05/28 04:24:32;;;;;;;59.17;3.00;;;;;;;;;;5078240;28;20435;-79
2022/05/28 04:27:00;;;;;;;59.40;3.10;;;;;;;;;;5077192;28;20525;-79
2022/05/28 04:29:27;;;;;;;58.83;3.00;;;;;;;;;;5077305;28;21052;-79
2022/05/28 04:31:54;;;;;;;60.70;3.60;;;;;;;;;;5077233;28;20439;-79
2022/05/28 04:34:23;;;;;;;59.03;2.87;;;;;;;;;;5077027;28;20788;-79
2022/05/28 04:36:50;;;;;;;59.27;3.50;;;;;;;;;;5077911;28;20454;-80
2022/05/28 04:39:18;;;;;;;59.83;3.70;;;;;;;;;;5076736;28;20481;-79
2022/05/28 04:41:46;;;;;;;63.07;4.03;;;;;;;;;;5077078;28;20455;-79
2022/05/28 04:44:13;;;;;;;59.40;3.30;;;;;;;;;;5077739;28;20435;-79
2022/05/28 04:46:41;;;;;;;59.03;2.93;;;;;;;;;;5077148;28;20542;-79
2022/05/28 04:49:08;;;;;;;59.27;3.30;;;;;;;;;;5073640;28;20847;-79
2022/05/28 04:51:37;;;;;;;58.77;2.90;;;;;;;;;;5071507;28;20841;-79
2022/05/28 04:54:04;;;;;;;60.00;3.23;;;;;;;;;;5071601;28;20483;-79
2022/05/28 04:56:32;;;;;;;62.27;3.30;;;;;;;;;;5071734;28;20442;-79
2022/05/28 04:58:59;;;;;;;60.80;3.57;;;;;;;;;;5071566;28;21108;-79
2022/05/28 05:01:26;;;;;;;60.90;3.80;;;;;;;;;;5072219;28;20887;-79
2022/05/28 05:03:54;;;;;;;61.07;3.43;;;;;;;;;;5072091;28;21621;-78
2022/05/28 05:06:21;;;;;;;60.90;3.20;;;;;;;;;;5072355;28;20870;-79
2022/05/28 05:08:50;;;;;;;61.77;4.03;;;;;;;;;;5071998;28;20486;-79
2022/05/28 05:11:17;;;;;;;61.97;4.53;;;;;;;;;;5064596;28;20442;-79
2022/05/28 05:13:44;;;;;;;67.53;3.97;;;;;;;;;;5074722;28;20453;-79
2022/05/28 05:16:12;;;;;;;61.30;4.13;;;;;;;;;;5076874;28;20442;-79
2022/05/28 05:18:40;;;;;;;59.73;3.33;;;;;;;;;;5077211;28;20517;-79
2022/05/28 05:21:07;;;;;;;61.60;3.57;;;;;;;;;;5078817;28;20465;-79
2022/05/28 05:23:34;;;;;;;59.60;2.80;;;;;;;;;;5077938;28;20447;-79
2022/05/28 05:26:09;;;;;;;60.17;2.90;;;;;;;;;;5077841;28;20439;-78
2022/05/28 05:28:36;;;;;;;59.67;3.20;;;;;;;;;;5076781;28;20524;-80
2022/05/28 05:31:03;;;;;;;60.30;2.93;;;;;;;;;;5078311;28;20462;-79
2022/05/28 05:33:30;;;;;;;60.57;2.77;;;;;;;;;;5077420;28;20481;-79
2022/05/28 05:35:58;;;;;;;59.27;3.13;;;;;;;;;;5076735;28;20451;-79
2022/05/28 05:38:25;;;;;;;58.97;2.93;;;;;;;;;;5076101;28;20455;-79
2022/05/28 05:40:53;;;;;;;61.70;4.53;;;;;;;;;;5077235;28;20505;-79
2022/05/28 05:43:22;;;;;;;63.37;3.50;;;;;;;;;;5076986;28;20439;-79
2022/05/28 05:45:53;;;;;;;59.60;3.60;;;;;;;;;;5077370;28;20856;-79
2022/05/28 05:48:20;;;;;;;60.30;3.23;;;;;;;;;;5076860;28;20439;-79
2022/05/28 05:50:48;;;;;;;59.50;3.27;;;;;;;;;;5077982;28;20600;-79
2022/05/28 05:53:15;;;;;;;59.13;3.27;;;;;;;;;;5068775;28;20438;-79
2022/05/28 05:55:42;;;;;;;61.00;3.37;;;;;;;;;;5078178;28;21012;-80
2022/05/28 05:58:10;;;;;;;58.87;3.10;;;;;;;;;;5078184;28;21002;-79
2022/05/28 06:00:39;;;;;;;60.40;3.40;;;;;;;;;;5078312;28;20469;-80
2022/05/28 06:03:06;;;;;;;59.10;3.47;;;;;;;;;;5078099;28;20846;-79
2022/05/28 06:05:34;;;;;;;60.17;3.37;;;;;;;;;;5078256;28;20458;-79
2022/05/28 06:08:01;;;;;;;59.90;3.33;;;;;;;;;;5078698;28;20985;-80
2022/05/28 06:10:28;;;;;;;62.17;3.90;;;;;;;;;;5077784;28;20487;-79
2022/05/28 06:12:56;;;;;;;59.50;3.20;;;;;;;;;;5078786;28;20436;-79
2022/05/28 06:15:23;;;;;;;58.83;3.00;;;;;;;;;;5078983;28;20490;-80
2022/05/28 06:17:52;;;;;;;59.40;3.40;;;;;;;;;;5078122;28;20431;-80
2022/05/28 06:20:19;;;;;;;59.10;2.97;;;;;;;;;;5078335;28;20470;-80
2022/05/28 06:22:46;;;;;;;59.20;3.20;;;;;;;;;;5078570;28;20451;-79
2022/05/28 06:25:14;;;;;;;62.00;3.07;;;;;;;;;;5078011;28;20923;-79
2022/05/28 06:27:41;;;;;;;58.90;3.00;;;;;;;;;;5078697;28;20986;-80
2022/05/28 06:30:10;;;;;;;58.67;2.93;;;;;;;;;;5078943;28;20487;-80
2022/05/28 06:32:37;;;;;;;58.80;2.80;;;;;;;;;;5079746;28;20467;-79
2022/05/28 06:35:06;;;;;;;59.37;3.10;;;;;;;;;;5078717;28;20934;-79
2022/05/28 06:37:33;;;;;;;59.20;3.67;;;;;;;;;;5078371;28;20486;-80
2022/05/28 06:40:00;;;;;;;59.10;3.20;;;;;;;;;;5079429;28;20463;-80
2022/05/28 06:42:28;;;;;;;59.13;3.27;;;;;;;;;;5078993;28;20923;-82
2022/05/28 06:44:56;;;;;;;60.27;3.07;;;;;;;;;;5079362;28;20479;-80
2022/05/28 06:47:23;;;;;;;60.50;3.50;;;;;;;;;;5079613;28;20442;-79
2022/05/28 06:51:01;;;;;;;61.20;3.10;;;;;;;;;;5079114;28;20574;-79
2022/05/28 06:52:40;;;;;;;60.37;3.77;;;;;;;;;;5078866;28;20543;-80
2022/05/28 06:55:08;;;;;;;59.97;3.50;;;;;;;;;;5078427;28;20438;-80
2022/05/28 06:57:35;;;;;;;58.87;2.90;;;;;;;;;;5079411;28;20498;-79
2022/05/28 07:00:02;;;;;;;62.40;3.40;;;;;;;;;;5079832;28;20471;-80
2022/05/28 07:02:29;;;;;;;59.40;2.93;;;;;;;;;;5079804;28;20463;-79
2022/05/28 07:04:57;;;;;;;63.00;3.40;;;;;;;;;;5080135;28;20645;-79
2022/05/28 07:07:24;;;;;;;61.20;3.20;;;;;;;;;;5079299;28;20436;-80
2022/05/28 07:09:52;;;;;;;59.10;3.00;;;;;;;;;;5079667;28;20487;-80
2022/05/28 07:12:20;;;;;;;60.77;3.20;;;;;;;;;;5079195;28;20857;-79
2022/05/28 07:14:47;;;;;;;58.50;2.70;;;;;;;;;;5079601;28;20781;-80
2022/05/28 07:17:14;;;;;;;59.83;2.90;;;;;;;;;;5078599;28;20509;-79
2022/05/28 07:19:41;;;;;;;58.60;2.80;;;;;;;;;;5079147;28;20481;-79
2022/05/28 07:22:09;;;;;;;59.50;3.20;;;;;;;;;;5078799;28;20526;-80
2022/05/28 07:24:36;;;;;;;59.83;2.80;;;;;;;;;;5079432;28;20438;-80
2022/05/28 07:27:05;;;;;;;58.67;2.70;;;;;;;;;;5079000;28;20486;-80
2022/05/28 07:29:32;;;;;;;58.37;2.60;;;;;;;;;;5078547;28;20486;-80
2022/05/28 07:31:59;;;;;;;59.27;3.20;;;;;;;;;;5082366;28;20438;-80
2022/05/28 07:34:27;;;;;;;58.87;2.70;;;;;;;;;;5083100;28;20460;-80
2022/05/28 07:36:54;;;;;;;60.53;3.10;;;;;;;;;;5081539;28;20497;-81
2022/05/28 07:39:21;;;;;;;61.37;3.10;;;;;;;;;;5079290;28;20455;-81
2022/05/28 07:41:49;;;;;;;60.10;2.83;;;;;;;;;;5079634;28;20458;-80
2022/05/28 07:44:18;;;;;;;63.47;3.13;;;;;;;;;;5079663;28;20501;-81
2022/05/28 07:46:45;;;;;;;59.30;3.17;;;;;;;;;;5078574;28;20438;-81
2022/05/28 07:49:13;;;;;;;58.67;2.70;;;;;;;;;;5078373;28;20537;-80
2022/05/28 07:51:40;;;;;;;59.97;2.50;;;;;;;;;;5078604;28;20443;-81
2022/05/28 07:54:09;;;;;;;60.60;3.53;;;;;;;;;;5079403;28;20439;-82
2022/05/28 07:56:36;;;;;;;58.43;2.80;;;;;;;;;;5079432;28;20864;-80
2022/05/28 07:59:04;;;;;;;59.30;3.20;;;;;;;;;;5077644;28;20882;-80
2022/05/28 08:01:35;;;;;;;58.80;3.10;;;;;;;;;;5079806;28;20502;-81
2022/05/28 08:04:02;;;;;;;59.53;2.97;;;;;;;;;;5078987;28;20542;-81
2022/05/28 08:06:31;;;;;;;58.90;3.43;;;;;;;;;;5078553;28;20436;-81
2022/05/28 08:08:59;;;;;;;61.07;2.50;;;;;;;;;;5078356;28;20542;-81
2022/05/28 08:11:26;;;;;;;59.73;3.10;;;;;;;;;;5078225;28;20432;-80
2022/05/28 08:13:54;;;;;;;58.37;2.43;;;;;;;;;;5077876;28;20857;-79
2022/05/28 08:16:21;;;;;;;58.70;2.80;;;;;;;;;;5081064;28;20447;-79
2022/05/28 08:18:50;;;;;;;58.70;3.10;;;;;;;;;;5082991;28;20464;-79
2022/05/28 08:24:03;;;;;;;58.70;2.57;;;;;;;;;;5082981;28;20928;-79
2022/05/28 08:26:30;;;;;;;58.60;2.90;;;;;;;;;;5074088;28;20789;-79
2022/05/28 08:28:58;;;;;;;60.60;2.77;;;;;;;;;;5073966;28;20440;-79
2022/05/28 08:31:25;;;;;;;58.60;2.60;;;;;;;;;;5074922;28;20510;-79
2022/05/28 08:33:54;;;;;;;59.47;2.97;;;;;;;;;;5075062;28;20440;-78
2022/05/28 08:36:22;;;;;;;58.70;2.50;;;;;;;;;;5074331;28;20597;-79
2022/05/28 08:38:49;;;;;;;65.90;3.33;;;;;;;;;;5075573;28;20472;-80
2022/05/28 08:41:19;;;;;;;59.07;2.87;;;;;;;;;;5069225;28;20457;-80
2022/05/28 08:43:49;;;;;;;59.83;2.83;;;;;;;;;;5076841;28;20449;-80
2022/05/28 08:46:18;;;;;;;62.37;2.97;;;;;;;;;;5077279;28;20479;-79
2022/05/28 08:48:46;;;;;;;58.97;2.90;;;;;;;;;;5075435;28;20840;-79
2022/05/28 08:51:19;;;;;;;59.43;3.03;;;;;;;;;;5076369;28;20526;-80
2022/05/28 08:53:49;;;;;;;59.30;2.93;;;;;;;;;;5077022;28;20503;-79
2022/05/28 08:56:20;;;;;;;58.23;2.80;;;;;;;;;;5077588;28;20919;-80
2022/05/28 08:58:49;;;;;;;58.30;2.53;;;;;;;;;;5075487;28;20469;-80
2022/05/28 09:01:19;;;;;;;61.23;2.60;;;;;;;;;;5076041;28;20959;-80
2022/05/28 09:03:48;;;;;;;59.97;3.80;;;;;;;;;;5074913;28;20561;-80
2022/05/28 09:06:19;;;;;;;58.87;2.90;;;;;;;;;;5075828;28;20441;-80
2022/05/28 09:08:47;;;;;;;58.50;2.50;;;;;;;;;;5075737;28;20489;-81
2022/05/28 09:11:15;;;;;;;58.57;2.63;;;;;;;;;;5075994;28;20882;-81
2022/05/28 09:13:45;;;;;;;61.97;3.07;;;;;;;;;;5075343;28;20439;-80
2022/05/28 09:16:17;;;;;;;58.43;2.50;;;;;;;;;;5075580;28;20501;-80
2022/05/28 09:18:44;;;;;;;58.93;2.77;;;;;;;;;;5075479;28;20957;-80
2022/05/28 09:21:15;;;;;;;61.37;2.93;;;;;;;;;;5076034;28;20436;-80
2022/05/28 09:23:45;;;;;;;61.13;3.00;;;;;;;;;;5075666;28;20512;-81
2022/05/28 09:26:13;;;;;;;59.27;2.50;;;;;;;;;;5076100;28;20428;-81
2022/05/28 09:28:45;;;;;;;58.47;3.00;;;;;;;;;;5075510;28;20438;-80
2022/05/28 09:31:19;;;;;;;58.90;2.70;;;;;;;;;;5076376;28;20544;-82
2022/05/28 09:33:55;;;;;;;59.33;2.90;;;;;;;;;;5075823;28;20789;-80
2022/05/28 09:36:27;;;;;;;59.53;2.40;;;;;;;;;;5076198;28;20466;-80
2022/05/28 09:39:01;;;;;;;60.70;2.50;;;;;;;;;;5075957;28;20439;-81
2022/05/28 09:41:35;;;;;;;58.80;2.90;;;;;;;;;;5075683;28;20501;-81
2022/05/28 09:44:06;;;;;;;58.97;2.53;;;;;;;;;;5076249;28;20431;-80
2022/05/28 09:46:36;;;;;;;60.20;2.83;;;;;;;;;;5076558;28;20497;-81
2022/05/28 09:49:04;;;;;;;59.10;2.60;;;;;;;;;;5076204;28;20455;-82
2022/05/28 09:51:32;;;;;;;58.07;2.20;;;;;;;;;;5075606;28;20557;-79
2022/05/28 09:54:20;;;;;;;58.40;2.40;;;;;;;;;;5074811;28;20529;-79
2022/05/28 09:56:52;;;;;;;59.53;2.50;;;;;;;;;;5071030;28;20926;-79
2022/05/28 09:59:21;;;;;;;61.60;2.57;;;;;;;;;;5071616;28;20939;-80
2022/05/28 10:01:53;;;;;;;60.40;3.27;;;;;;;;;;5075213;28;20507;-79
2022/05/28 10:04:29;;;;;;;59.73;3.30;;;;;;;;;;5075372;28;20468;-80
2022/05/28 10:06:57;;;;;;;58.07;2.40;;;;;;;;;;5075888;28;20460;-80
2022/05/28 10:09:27;;;;;;;58.70;3.10;;;;;;;;;;5075932;28;20468;-80
2022/05/28 10:11:55;;;;;;;58.17;2.57;;;;;;;;;;5075991;28;21056;-81
2022/05/28 10:14:23;;;;;;;60.30;2.63;;;;;;;;;;5076071;28;20445;-80
2022/05/28 10:16:55;;;;;;;58.60;2.50;;;;;;;;;;5076245;28;20448;-80
2022/05/28 10:19:25;;;;;;;64.33;5.23;;;;;;;;;;5075954;28;20875;-80
2022/05/28 10:21:54;;;;;;;59.87;3.27;;;;;;;;;;5076937;28;20525;-80
2022/05/28 10:24:22;;;;;;;66.47;8.00;;;;;;;;;;5076500;28;20440;-80
2022/05/28 10:26:53;;;;;;;63.40;6.90;;;;;;;;;;5076723;28;20559;-79
2022/05/28 10:29:22;;;;;;;60.60;4.10;;;;;;;;;;5076596;28;20895;-80
2022/05/28 10:31:50;;;;;;;65.50;3.67;;;;;;;;;;5076715;28;20476;-80
2022/05/28 10:34:25;;;;;;;59.37;2.70;;;;;;;;;;5077321;28;20445;-80
2022/05/28 10:36:52;;;;;;;58.27;2.80;;;;;;;;;;5076840;28;20458;-80
2022/05/28 10:39:20;;;;;;;66.43;4.90;;;;;;;;;;5077210;28;20458;-80
2022/05/28 10:41:49;;;;;;;79.83;16.87;;;;;;;;;;5077346;28;20443;-80
2022/05/28 10:44:19;;;;;;;62.30;5.60;;;;;;;;;;5077151;28;20439;-81
2022/05/28 10:47:00;;;;;;;59.30;2.90;;;;;;;;;;5077366;28;20471;-79
2022/05/28 10:49:34;;;;;;;59.30;3.20;;;;;;;;;;5072608;28;20448;-80
2022/05/28 10:52:07;;;;;;;59.00;2.63;;;;;;;;;;5079718;28;21076;-80
2022/05/28 10:54:43;;;;;;;58.57;3.57;;;;;;;;;;5079908;28;20573;-81
2022/05/28 10:57:20;;;;;;;58.90;2.70;;;;;;;;;;5077217;28;20436;-80
2022/05/28 10:59:57;;;;;;;61.07;3.17;;;;;;;;;;5077766;28;20455;-81
2022/05/28 11:02:44;;;;;;;62.80;3.30;;;;;;;;;;5077277;28;20807;-81
2022/05/28 11:05:17;;;;;;;60.97;3.00;;;;;;;;;;5077482;28;20440;-80
2022/05/28 11:07:51;;;;;;;59.20;2.50;;;;;;;;;;5077402;28;20428;-81
2022/05/28 11:10:27;;;;;;;59.17;2.83;;;;;;;;;;5078316;28;21002;-80
2022/05/28 11:13:14;;;;;;;58.57;2.50;;;;;;;;;;5077813;28;20432;-81
2022/05/28 11:15:55;;;;;;;60.20;4.13;;;;;;;;;;5078170;28;20436;-80
2022/05/28 11:18:32;;;;;;;59.00;3.50;;;;;;;;;;5079806;28;20447;-81
2022/05/28 11:21:03;;;;;;;59.60;3.03;;;;;;;;;;5078210;28;20532;-81
2022/05/28 11:23:55;;;;;;;58.40;2.70;;;;;;;;;;5078645;28;20454;-81
2022/05/28 11:26:27;;;;;;;59.47;2.67;;;;;;;;;;5078662;28;20495;-80
2022/05/28 11:29:03;;;;;;;58.10;2.30;;;;;;;;;;5079426;28;20439;-81
2022/05/28 11:31:34;;;;;;;58.70;2.90;;;;;;;;;;5078870;28;20494;-81
2022/05/28 11:34:04;;;;;;;60.60;2.80;;;;;;;;;;5078762;28;20511;-81
2022/05/28 11:36:36;;;;;;;59.43;2.20;;;;;;;;;;5078154;28;20432;-80
2022/05/28 11:39:06;;;;;;;57.87;1.97;;;;;;;;;;5079367;28;20464;-81
2022/05/28 11:41:36;;;;;;;58.37;2.43;;;;;;;;;;5078300;28;20869;-80
2022/05/28 11:44:06;;;;;;;58.70;2.10;;;;;;;;;;5078858;28;20463;-80
2022/05/28 11:46:39;;;;;;;58.50;2.10;;;;;;;;;;5078574;28;20439;-81
2022/05/28 11:51:57;;;;;;;61.70;2.27;;;;;;;;;;5077880;28;20494;-80
2022/05/28 11:54:27;;;;;;;58.30;2.20;;;;;;;;;;5078545;28;20466;-81
2022/05/28 11:56:56;;;;;;;58.60;2.40;;;;;;;;;;5078657;28;20441;-81
2022/05/28 11:59:27;;;;;;;58.27;2.30;;;;;;;;;;5078045;28;20460;-80
2022/05/28 12:02:00;;;;;;;59.40;3.30;;;;;;;;;;5079335;28;20526;-80
2022/05/28 12:04:27;;;;;;;59.90;2.20;;;;;;;;;;5079010;28;20511;-80
2022/05/28 12:07:02;;;;;;;58.37;2.40;;;;;;;;;;5080484;28;20440;-80
2022/05/28 12:09:32;;;;;;;59.10;2.50;;;;;;;;;;5080556;28;20459;-81
2022/05/28 12:12:04;;;;;;;58.47;2.50;;;;;;;;;;5080293;28;20479;-80
2022/05/28 12:14:32;;;;;;;62.50;2.93;;;;;;;;;;5078801;28;20446;-81
2022/05/28 12:17:04;;;;;;;59.20;2.80;;;;;;;;;;5078252;28;20466;-80
2022/05/28 12:19:32;;;;;;;59.47;2.40;;;;;;;;;;5079013;28;20543;-81
2022/05/28 12:22:07;;;;;;;59.80;2.60;;;;;;;;;;5079075;28;20534;-80
2022/05/28 12:24:37;;;;;;;60.60;3.00;;;;;;;;;;5078353;28;20456;-80
2022/05/28 12:29:59;;;;;;;58.70;2.60;;;;;;;;;;5079780;28;20459;-81
2022/05/28 12:32:29;;;;;;;59.73;3.27;;;;;;;;;;5079456;28;20540;-81
2022/05/28 12:34:58;;;;;;;58.40;2.60;;;;;;;;;;5078998;28;20485;-81
2022/05/28 12:37:26;;;;;;;58.20;2.20;;;;;;;;;;5079329;28;20467;-81
2022/05/28 12:39:58;;;;;;;60.83;2.70;;;;;;;;;;5079218;28;20547;-80
2022/05/28 12:42:30;;;;;;;59.27;3.33;;;;;;;;;;5078659;28;20506;-81
2022/05/28 12:44:58;;;;;;;60.30;2.20;;;;;;;;;;5079513;28;20462;-81
2022/05/28 12:47:29;;;;;;;58.27;2.20;;;;;;;;;;5078469;28;20449;-80
2022/05/28 12:49:59;;;;;;;59.57;2.60;;;;;;;;;;5079271;28;20485;-80
2022/05/28 12:52:34;;;;;;;58.00;2.30;;;;;;;;;;5078837;28;20489;-81
2022/05/28 12:55:06;;;;;;;59.00;2.47;;;;;;;;;;5079499;28;20458;-81
2022/05/28 12:57:35;;;;;;;57.77;1.90;;;;;;;;;;5077981;28;20440;-80
2022/05/28 13:00:05;;;;;;;57.67;2.03;;;;;;;;;;5078696;28;20475;-81
2022/05/28 13:02:38;;;;;;;59.00;2.20;;;;;;;;;;5076839;28;20502;-80
2022/05/28 13:05:09;;;;;;;59.03;2.50;;;;;;;;;;5077253;28;20420;-83
2022/05/28 13:07:38;;;;;;;57.97;2.20;;;;;;;;;;5076670;28;20558;-80
2022/05/28 13:10:12;;;;;;;57.73;2.00;;;;;;;;;;5077884;28;20478;-81
2022/05/28 13:12:45;;;;;;;58.10;2.30;;;;;;;;;;5077328;28;20699;-81
2022/05/28 13:15:42;;;;;;;57.90;2.30;;;;;;;;;;5081208;28;20458;-81
2022/05/28 13:18:25;;;;;;;58.87;2.20;;;;;;;;;;5081898;28;20445;-82
2022/05/28 13:20:58;;;;;;;57.90;2.00;;;;;;;;;;5087435;28;20464;-81
2022/05/28 13:23:39;;;;;;;58.70;3.00;;;;;;;;;;5084562;28;20442;-81
2022/05/28 13:26:23;;;;;;;58.17;2.37;;;;;;;;;;5082066;28;20438;-81
2022/05/28 13:29:05;;;;;;;59.10;2.70;;;;;;;;;;5073408;28;21011;-80
2022/05/28 13:31:35;;;;;;;58.27;2.60;;;;;;;;;;5070886;28;20483;-80
2022/05/28 13:34:04;;;;;;;58.37;2.43;;;;;;;;;;5074784;28;20445;-80
2022/05/28 13:36:33;;;;;;;58.60;2.70;;;;;;;;;;5079850;28;20543;-80
2022/05/28 13:39:02;;;;;;;58.37;2.20;;;;;;;;;;5078561;28;20483;-81
2022/05/28 13:41:31;;;;;;;59.33;2.70;;;;;;;;;;5078862;28;20432;-81
2022/05/28 13:44:05;;;;;;;59.30;2.60;;;;;;;;;;5079282;28;20489;-81
2022/05/28 13:46:33;;;;;;;58.47;2.53;;;;;;;;;;5078037;28;20443;-80
2022/05/28 13:49:01;;;;;;;58.77;2.30;;;;;;;;;;5076893;28;20534;-81
2022/05/28 13:51:31;;;;;;;58.80;3.00;;;;;;;;;;5078567;28;20525;-80
2022/05/28 13:54:01;;;;;;;59.37;2.70;;;;;;;;;;5078021;28;20454;-80
2022/05/28 13:56:29;;;;;;;59.47;3.20;;;;;;;;;;5079181;28;20462;-81
2022/05/28 13:58:57;;;;;;;59.67;3.10;;;;;;;;;;5077333;28;20439;-81
2022/05/28 14:01:26;;;;;;;60.40;2.80;;;;;;;;;;5078115;28;20435;-81
2022/05/28 14:03:53;;;;;;;59.10;2.40;;;;;;;;;;5077832;28;20432;-81
2022/05/28 14:06:23;;;;;;;60.90;2.63;;;;;;;;;;5078071;28;20508;-81
2022/05/28 14:08:52;;;;;;;59.33;2.60;;;;;;;;;;5080823;28;20444;-80
2022/05/28 14:11:22;;;;;;;58.90;2.50;;;;;;;;;;5080635;28;20538;-81
2022/05/28 14:13:50;;;;;;;59.87;2.70;;;;;;;;;;5080637;28;20452;-81
2022/05/28 14:16:20;;;;;;;58.80;2.30;;;;;;;;;;5073025;28;20458;-81
2022/05/28 14:18:47;;;;;;;57.80;2.40;;;;;;;;;;5079999;28;20862;-81
2022/05/28 14:21:14;;;;;;;58.17;2.40;;;;;;;;;;5078217;28;20439;-82
2022/05/28 14:23:42;;;;;;;58.17;2.50;;;;;;;;;;5079058;28;20459;-81
2022/05/28 14:26:12;;;;;;;58.50;2.33;;;;;;;;;;5078701;28;20936;-82
2022/05/28 14:28:41;;;;;;;57.97;1.90;;;;;;;;;;5078894;28;20455;-81
2022/05/28 14:31:08;;;;;;;59.87;2.17;;;;;;;;;;5078445;28;20441;-81
2022/05/28 14:33:39;;;;;;;58.80;2.53;;;;;;;;;;5077170;28;20438;-81
2022/05/28 14:36:07;;;;;;;59.10;2.33;;;;;;;;;;5077458;28;20480;-82
2022/05/28 14:38:35;;;;;;;59.30;2.10;;;;;;;;;;5078490;28;20506;-81
2022/05/28 14:41:07;;;;;;;59.30;2.43;;;;;;;;;;5078594;28;20453;-81
2022/05/28 14:43:36;;;;;;;59.57;2.10;;;;;;;;;;5079051;28;20438;-81
2022/05/28 14:46:05;;;;;;;58.50;2.50;;;;;;;;;;5077016;28;20459;-82
2022/05/28 14:48:32;;;;;;;57.93;2.03;;;;;;;;;;5078597;28;20436;-81
2022/05/28 14:51:03;;;;;;;58.60;2.10;;;;;;;;;;5078114;28;20463;-81
2022/05/28 14:53:33;;;;;;;57.67;1.93;;;;;;;;;;5079596;28;20455;-81
2022/05/28 14:56:00;;;;;;;58.20;2.37;;;;;;;;;;5079554;28;20448;-81